Time;durP1;ratioP1;P1;durP2;ratioP2;P2;SDS_P1;SDS_P2;PMS_P1;PMS_P2;Temp;Humidity;BMP_temperature;BMP_pressure;BME280_temperature;BME280_humidity;BME280_pressure;Samples;Min_cycle;Max_cycle;Signal;HPM_P1;HPM_P2
2022/03/28 00:02:13;;;;;;;45.05;9.20;;;;;;;-2.78;50.10;100309.07;1753646;80;21124;-67
2022/03/28 00:04:40;;;;;;;28.62;5.17;;;;;;;-2.77;49.97;100311.23;1763650;80;21411;-67
2022/03/28 00:07:07;;;;;;;23.07;5.60;;;;;;;-2.80;49.99;100303.59;1780223;80;20944;-67
2022/03/28 00:09:37;;;;;;;20.48;3.33;;;;;;;-2.82;49.99;100307.84;1707407;81;21433;-67
2022/03/28 00:12:07;;;;;;;12.50;2.62;;;;;;;-2.83;49.96;100307.53;1696658;83;20917;-67
2022/03/28 00:14:34;;;;;;;7.35;2.65;;;;;;;-2.85;49.94;100309.59;1707730;83;21169;-66
2022/03/28 00:17:03;;;;;;;9.90;2.22;;;;;;;-2.87;49.80;100313.02;1697746;83;21024;-67
2022/03/28 00:19:31;;;;;;;8.08;1.98;;;;;;;-2.89;49.81;100308.91;1696507;83;20874;-67
2022/03/28 00:22:01;;;;;;;9.80;2.40;;;;;;;-2.89;49.82;100311.09;1692734;84;21456;-67
2022/03/28 00:24:28;;;;;;;16.40;2.60;;;;;;;-2.89;49.79;100311.60;1695292;83;20988;-66
2022/03/28 00:26:55;;;;;;;16.23;1.90;;;;;;;-2.91;49.70;100310.47;1701997;83;21200;-67
2022/03/28 00:29:22;;;;;;;8.30;2.10;;;;;;;-2.93;49.72;100306.34;1699245;83;20984;-67
2022/03/28 00:31:49;;;;;;;6.08;1.82;;;;;;;-2.94;49.73;100309.55;1703231;83;20869;-66
2022/03/28 00:34:21;;;;;;;8.00;2.00;;;;;;;-2.96;49.70;100314.30;1698453;83;20940;-67
2022/03/28 00:36:45;;;;;;;14.50;2.08;;;;;;;-2.96;49.62;100313.47;1703831;83;20952;-67
2022/03/28 00:39:12;;;;;;;10.10;1.72;;;;;;;-2.96;49.57;100314.81;1704032;83;21505;-68
2022/03/28 00:41:40;;;;;;;5.10;1.85;;;;;;;-2.98;49.84;100313.68;1711163;83;20984;-67
2022/03/28 00:44:07;;;;;;;4.83;1.90;;;;;;;-3.01;50.51;100318.13;1704929;83;21455;-67
2022/03/28 00:46:35;;;;;;;8.23;2.00;;;;;;;-3.05;50.67;100319.06;1710591;83;20996;-67
2022/03/28 00:49:02;;;;;;;11.50;2.08;;;;;;;-3.06;50.27;100325.98;1698206;83;21058;-67
2022/03/28 00:51:29;;;;;;;13.25;2.55;;;;;;;-3.08;50.04;100325.36;1704849;83;21267;-67
2022/03/28 00:53:57;;;;;;;20.60;2.22;;;;;;;-3.08;50.08;100322.67;1696797;83;21036;-67
2022/03/28 00:56:24;;;;;;;9.53;2.02;;;;;;;-3.08;49.91;100325.36;1701656;83;20980;-67
2022/03/28 00:58:51;;;;;;;13.05;2.67;;;;;;;-3.08;49.75;100324.84;1704316;83;20948;-68
2022/03/28 01:01:20;;;;;;;9.40;2.85;;;;;;;-3.07;49.60;100310.90;1710883;83;20865;-67
2022/03/28 01:03:47;;;;;;;9.50;2.27;;;;;;;-3.08;49.49;100305.22;1751345;80;21280;-68
2022/03/28 01:06:14;;;;;;;11.57;2.17;;;;;;;-3.08;49.71;100305.22;1752987;80;20943;-68
2022/03/28 01:08:42;;;;;;;10.90;2.47;;;;;;;-3.06;50.28;100295.09;1738596;80;20986;-69
2022/03/28 01:11:10;;;;;;;7.37;2.42;;;;;;;-3.03;49.99;100288.78;1732629;82;21494;-70
2022/03/28 01:13:42;;;;;;;19.45;2.33;;;;;;;-3.01;49.72;100285.38;1712760;82;20924;-68
2022/03/28 01:16:23;;;;;;;;;;;;;;;;;;;;;
2022/03/28 01:18:43;;;;;;;9.08;2.65;;;;;;;-2.97;49.55;100275.55;1664639;83;21083;-66
2022/03/28 01:21:09;;;;;;;14.80;2.40;;;;;;;-2.97;49.50;100269.66;1753021;80;21495;-66
2022/03/28 01:23:38;;;;;;;5.53;1.82;;;;;;;-2.97;49.41;100267.49;1728303;81;20981;-66
2022/03/28 01:26:06;;;;;;;15.03;2.58;;;;;;;-2.98;49.78;100262.64;1748556;80;20990;-67
2022/03/28 01:28:35;;;;;;;14.38;2.00;;;;;;;-2.99;49.75;100263.67;1754307;80;20948;-68
2022/03/28 01:31:03;;;;;;;9.70;1.70;;;;;;;-2.99;49.88;100266.36;1737392;80;21089;-67
2022/03/28 01:33:30;;;;;;;14.85;2.55;;;;;;;-2.98;49.89;100265.33;1745336;80;21047;-66
2022/03/28 01:35:58;;;;;;;12.28;2.87;;;;;;;-2.98;49.89;100264.50;1751588;80;21091;-65
2022/03/28 01:38:26;;;;;;;7.40;2.20;;;;;;;-2.99;49.89;100269.05;1756372;80;21065;-65
2022/03/28 01:40:54;;;;;;;12.53;2.00;;;;;;;-3.01;50.00;100262.54;1739880;80;21269;-65
2022/03/28 01:43:21;;;;;;;14.95;2.22;;;;;;;-3.02;50.28;100272.98;1735926;80;20939;-67
2022/03/28 01:45:50;;;;;;;6.62;1.50;;;;;;;-3.01;50.84;100269.25;1741707;80;21590;-66
2022/03/28 01:48:17;;;;;;;16.52;2.60;;;;;;;-3.00;50.57;100260.16;1754180;80;20892;-66
2022/03/28 01:50:45;;;;;;;10.85;2.15;;;;;;;-2.99;50.66;100262.33;1780160;80;20986;-66
2022/03/28 01:53:12;;;;;;;16.97;2.00;;;;;;;-2.98;50.93;100258.61;1773430;80;22129;-65
2022/03/28 01:55:40;;;;;;;15.88;1.95;;;;;;;-2.96;50.77;100259.22;1769337;80;20876;-66
2022/03/28 01:58:08;;;;;;;9.53;2.10;;;;;;;-2.95;50.87;100254.67;1763191;80;20936;-66
2022/03/28 02:00:36;;;;;;;12.18;3.37;;;;;;;-2.92;51.13;100248.88;1733803;81;20944;-66
2022/03/28 02:03:03;;;;;;;7.30;2.72;;;;;;;-2.88;51.06;100238.81;1716044;81;21087;-66
2022/03/28 02:05:30;;;;;;;16.82;2.85;;;;;;;-2.83;52.39;100248.41;1721592;82;21165;-66
2022/03/28 02:07:59;;;;;;;9.88;2.35;;;;;;;-2.75;51.72;100250.05;1740858;81;20876;-66
2022/03/28 02:10:36;;;;;;;;;;;;;;;;;;;;;
2022/03/28 02:12:56;;;;;;;10.00;1.92;;;;;;;-2.68;51.55;100247.64;1716823;81;21627;-66
2022/03/28 02:15:26;;;;;;;11.03;1.85;;;;;;;-2.65;51.82;100239.67;1701987;81;21001;-67
2022/03/28 02:17:55;;;;;;;9.68;1.92;;;;;;;-2.60;50.99;100243.89;1724732;81;21152;-65
2022/03/28 02:20:22;;;;;;;7.70;1.60;;;;;;;-2.56;51.17;100245.63;1709149;81;20971;-66
2022/03/28 02:22:56;;;;;;;6.30;1.92;;;;;;;-2.53;51.14;100239.83;1703048;83;21005;-66
2022/03/28 02:25:17;;;;;;;15.78;2.08;;;;;;;-2.47;51.08;100234.95;1695603;83;21025;-66
2022/03/28 02:27:44;;;;;;;4.37;1.22;;;;;;;-2.44;51.17;100238.03;1698491;83;20918;-66
2022/03/28 02:30:13;;;;;;;7.22;2.02;;;;;;;-2.41;50.97;100234.92;1749463;81;21299;-66
2022/03/28 02:32:40;;;;;;;6.47;1.62;;;;;;;-2.39;50.71;100230.67;1713664;81;21055;-66
2022/03/28 02:35:12;;;;;;;10.23;1.82;;;;;;;-2.39;50.66;100230.67;1735206;81;20925;-67
2022/03/28 02:37:38;;;;;;;7.83;1.62;;;;;;;-2.38;50.84;100229.11;1741666;81;20920;-67
2022/03/28 02:40:10;;;;;;;14.03;1.85;;;;;;;-2.38;50.38;100229.63;1749378;82;20913;-67
2022/03/28 02:42:36;;;;;;;9.83;1.92;;;;;;;-2.38;50.32;100233.66;1737727;81;21160;-67
2022/03/28 02:45:07;;;;;;;5.28;1.45;;;;;;;-2.39;50.61;100236.87;1692105;83;20974;-67
2022/03/28 02:47:34;;;;;;;5.45;1.70;;;;;;;-2.38;50.50;100244.42;1695678;83;21040;-67
2022/03/28 02:50:01;;;;;;;11.65;1.62;;;;;;;-2.39;50.40;100241.42;1702674;83;20882;-67
2022/03/28 02:52:28;;;;;;;18.77;2.25;;;;;;;-2.39;50.87;100246.80;1719775;81;21392;-68
2022/03/28 02:54:58;;;;;;;11.63;2.42;;;;;;;-2.40;50.35;100241.12;1721005;81;21800;-66
2022/03/28 02:57:27;;;;;;;4.67;1.62;;;;;;;-2.41;50.61;100236.78;1704049;82;21479;-66
2022/03/28 02:59:55;;;;;;;9.50;1.47;;;;;;;-2.41;51.18;100238.95;1741374;81;21004;-66
2022/03/28 03:02:22;;;;;;;21.37;2.25;;;;;;;-2.41;50.66;100236.78;1731982;81;20968;-66
2022/03/28 03:04:51;;;;;;;6.70;2.00;;;;;;;-2.43;50.43;100231.62;1701684;83;21116;-67
2022/03/28 03:07:20;;;;;;;6.90;2.47;;;;;;;-2.44;50.31;100229.97;1721635;81;20893;-68
2022/03/28 03:09:49;;;;;;;14.55;2.52;;;;;;;-2.45;50.28;100233.70;1740857;82;20873;-67
2022/03/28 03:12:16;;;;;;;12.98;2.80;;;;;;;-2.47;50.27;100229.05;1694381;83;20937;-68
2022/03/28 03:14:43;;;;;;;6.92;2.42;;;;;;;-2.49;50.26;100229.78;1735878;81;20967;-68
2022/03/28 03:17:10;;;;;;;8.15;2.30;;;;;;;-2.50;50.28;100225.97;1729589;81;20889;-68
2022/03/28 03:19:40;;;;;;;8.98;1.90;;;;;;;-2.51;50.25;100225.14;1706602;83;21859;-67
2022/03/28 03:22:08;;;;;;;10.50;2.75;;;;;;;-2.52;50.25;100219.98;1724535;81;20885;-67
2022/03/28 03:27:04;;;;;;;7.67;2.55;;;;;;;-2.55;50.48;100223.09;1734361;81;20955;-68
2022/03/28 03:29:33;;;;;;;24.35;3.95;;;;;;;-2.56;50.53;100224.13;1740991;81;20987;-66
2022/03/28 03:32:00;;;;;;;10.58;2.70;;;;;;;-2.58;50.45;100216.80;1738110;81;21259;-66
2022/03/28 03:34:27;;;;;;;13.98;3.25;;;;;;;-2.58;50.50;100224.86;1741672;81;20877;-67
2022/03/28 03:36:55;;;;;;;6.47;2.45;;;;;;;-2.59;50.91;100217.31;1713268;83;21048;-68
2022/03/28 03:39:22;;;;;;;20.27;2.83;;;;;;;-2.55;50.76;100213.69;1699342;83;20955;-68
2022/03/28 03:41:49;;;;;;;11.12;3.58;;;;;;;-2.53;50.74;100211.60;1705583;83;20936;-68
2022/03/28 03:44:16;;;;;;;8.63;2.92;;;;;;;-2.51;50.75;100216.25;1694925;83;21343;-68
2022/03/28 03:46:45;;;;;;;12.78;3.55;;;;;;;-2.49;50.66;100210.14;1699717;83;20962;-67
2022/03/28 03:49:16;;;;;;;23.35;4.17;;;;;;;-2.46;50.77;100205.16;1741680;81;20975;-68
2022/03/28 03:51:43;;;;;;;15.95;3.55;;;;;;;-2.40;50.92;100198.92;1684374;83;20939;-67
2022/03/28 03:54:10;;;;;;;18.98;3.65;;;;;;;-2.36;50.61;100207.38;1688403;84;20946;-67
2022/03/28 03:56:38;;;;;;;15.13;3.55;;;;;;;-2.30;50.39;100206.49;1700994;84;21337;-68
2022/03/28 03:59:07;;;;;;;10.75;3.02;;;;;;;-2.23;50.24;100198.38;1697624;83;21544;-68
2022/03/28 04:01:35;;;;;;;11.88;2.92;;;;;;;-2.17;50.32;100188.93;1741626;81;21495;-68
2022/03/28 04:04:04;;;;;;;13.05;2.75;;;;;;;-2.10;50.34;100195.61;1702086;83;21025;-68
2022/03/28 04:06:31;;;;;;;9.05;2.47;;;;;;;-2.04;50.15;100190.19;1737299;81;21020;-68
2022/03/28 04:08:58;;;;;;;7.92;2.17;;;;;;;-1.97;49.72;100183.94;1738722;82;21143;-69
2022/03/28 04:11:36;;;;;;;11.75;2.62;;;;;;;-1.88;49.39;100185.31;1723177;81;21525;-67
2022/03/28 04:14:12;;;;;;;7.35;2.08;;;;;;;-1.80;49.83;100187.22;1725181;81;20857;-68
2022/03/28 04:16:42;;;;;;;12.47;2.75;;;;;;;-1.72;48.65;100196.33;1723725;81;21445;-68
2022/03/28 04:19:17;;;;;;;11.08;1.92;;;;;;;-1.64;48.55;100191.72;1686896;84;20997;-67
2022/03/28 04:21:50;;;;;;;22.13;2.87;;;;;;;-1.57;48.42;100195.18;1678361;85;21005;-67
2022/03/28 04:24:16;;;;;;;9.43;2.77;;;;;;;-1.50;47.90;100192.73;1683176;85;20904;-69
2022/03/28 04:26:46;;;;;;;14.03;2.85;;;;;;;-1.42;47.87;100192.97;1660046;85;21034;-69
2022/03/28 04:29:19;;;;;;;7.60;2.70;;;;;;;-1.38;47.59;100185.57;1734575;81;20983;-68
2022/03/28 04:31:51;;;;;;;9.08;2.60;;;;;;;-1.32;47.70;100177.65;1726937;81;20931;-67
2022/03/28 04:34:20;;;;;;;8.88;2.40;;;;;;;-1.26;47.58;100164.64;1723553;81;22037;-69
2022/03/28 04:36:48;;;;;;;8.63;2.20;;;;;;;-1.22;47.45;100169.88;1737321;81;21012;-68
2022/03/28 04:39:21;;;;;;;11.38;2.65;;;;;;;-1.17;47.21;100168.69;1735047;82;20990;-69
2022/03/28 04:41:48;;;;;;;13.75;3.02;;;;;;;-1.13;46.93;100163.12;1720291;81;20949;-68
2022/03/28 04:44:27;;;;;;;11.12;2.70;;;;;;;-1.08;46.76;100152.49;1733648;81;21069;-68
2022/03/28 04:46:58;;;;;;;9.60;2.45;;;;;;;-1.03;46.98;100145.91;1744884;81;21026;-68
2022/03/28 04:49:31;;;;;;;12.33;2.80;;;;;;;-0.97;46.95;100149.57;1710015;83;21009;-67
2022/03/28 04:52:03;;;;;;;8.13;2.15;;;;;;;-0.91;46.59;100149.48;1693364;83;20902;-68
2022/03/28 04:54:38;;;;;;;13.15;2.90;;;;;;;-0.84;46.53;100136.75;1682916;83;21442;-67
2022/03/28 04:57:10;;;;;;;14.80;2.58;;;;;;;-0.76;46.19;100142.36;1703450;84;20966;-68
2022/03/28 04:59:44;;;;;;;23.92;3.10;;;;;;;-0.69;45.95;100137.18;1685338;83;21389;-67
2022/03/28 05:02:15;;;;;;;10.40;2.70;;;;;;;-0.59;46.00;100128.55;1693548;83;20903;-68
2022/03/28 05:04:55;;;;;;;10.93;2.50;;;;;;;-0.50;46.04;100131.19;1662189;84;20868;-68
2022/03/28 05:07:25;;;;;;;15.08;2.62;;;;;;;-0.40;45.55;100130.64;1695330;83;21021;-68
2022/03/28 05:09:53;;;;;;;17.35;2.77;;;;;;;-0.34;45.32;100132.42;1729534;81;20985;-68
2022/03/28 05:12:27;;;;;;;7.55;2.90;;;;;;;-0.28;45.28;100131.50;1745060;81;21154;-68
2022/03/28 05:14:58;;;;;;;10.72;2.20;;;;;;;-0.24;45.09;100132.69;1748792;82;20983;-68
2022/03/28 05:17:45;;;;;;;;;;;;;;;;;;;;;
2022/03/28 05:20:05;;;;;;;11.10;3.10;;;;;;;-0.14;45.29;100137.52;1725304;81;21173;-68
2022/03/28 05:22:45;;;;;;;9.30;2.33;;;;;;;-0.10;45.38;100138.70;1727104;81;20992;-67
2022/03/28 05:25:08;;;;;;;14.18;3.52;;;;;;;-0.08;45.45;100140.12;1740062;81;21953;-69
2022/03/28 05:27:49;;;;;;;8.95;2.50;;;;;;;-0.06;45.68;100149.33;1741092;81;21003;-67
2022/03/28 05:30:21;;;;;;;9.80;2.72;;;;;;;-0.05;45.75;100150.45;1726805;81;20941;-67
2022/03/28 05:32:52;;;;;;;8.78;2.62;;;;;;;-0.02;45.85;100147.81;1732260;81;21633;-69
2022/03/28 05:35:21;;;;;;;8.75;2.90;;;;;;;0.00;45.60;100145.15;1740858;82;20880;-67
2022/03/28 05:37:57;;;;;;;20.05;2.92;;;;;;;0.02;45.54;100141.39;1734498;81;21277;-70
2022/03/28 05:40:20;;;;;;;14.60;3.37;;;;;;;0.05;45.66;100149.03;1692092;81;20875;-74
2022/03/28 05:42:51;;;;;;;13.20;3.37;;;;;;;0.08;45.84;100149.39;1728208;81;20972;-75
2022/03/28 05:45:22;;;;;;;9.20;2.80;;;;;;;0.13;45.89;100138.72;1719064;81;21037;-74
2022/03/28 05:47:53;;;;;;;10.05;2.70;;;;;;;0.20;45.30;100126.45;1740172;82;21018;-75
2022/03/28 05:50:24;;;;;;;8.75;2.17;;;;;;;0.26;45.27;100114.72;1727470;81;21455;-75
2022/03/28 05:52:58;;;;;;;12.37;2.85;;;;;;;0.33;45.19;100091.94;1727803;82;21001;-75
2022/03/28 05:55:27;;;;;;;6.97;3.17;;;;;;;0.43;44.90;100095.41;1747756;81;20885;-77
2022/03/28 05:58:04;;;;;;;17.92;3.33;;;;;;;0.55;44.67;100094.87;1741870;81;21005;-75
2022/03/28 06:00:39;;;;;;;48.30;14.78;;;;;;;0.68;44.17;100102.40;1735386;81;20978;-75
2022/03/28 06:03:13;;;;;;;43.83;11.60;;;;;;;0.79;43.96;100093.45;1742393;82;21935;-75
2022/03/28 06:05:45;;;;;;;15.80;5.25;;;;;;;0.91;43.68;100099.13;1705254;81;21077;-75
2022/03/28 06:08:19;;;;;;;11.93;3.47;;;;;;;1.02;43.53;100104.21;1730574;81;21518;-75
2022/03/28 06:10:51;;;;;;;12.77;4.67;;;;;;;1.15;42.97;100105.29;1728688;82;21017;-74
2022/03/28 06:13:24;;;;;;;20.50;6.97;;;;;;;1.26;43.05;100085.99;1712954;82;20938;-73
2022/03/28 06:15:56;;;;;;;22.70;7.78;;;;;;;1.37;42.71;100082.42;1708714;81;21107;-77
2022/03/28 06:18:29;;;;;;;11.68;3.00;;;;;;;1.51;42.68;100083.77;1737462;81;21150;-76
2022/03/28 06:20:57;;;;;;;6.12;1.57;;;;;;;1.65;42.28;100077.52;1740571;81;21000;-71
2022/03/28 06:23:27;;;;;;;10.03;2.65;;;;;;;1.80;41.43;100068.27;1749307;81;20995;-70
2022/03/28 06:26:02;;;;;;;5.60;1.87;;;;;;;1.94;41.15;100064.70;1686670;83;21029;-74
2022/03/28 06:28:29;;;;;;;14.00;2.70;;;;;;;2.08;40.75;100071.43;1692816;83;21247;-71
2022/03/28 06:30:56;;;;;;;6.45;2.27;;;;;;;2.22;39.97;100061.08;1692668;83;21168;-70
2022/03/28 06:33:25;;;;;;;18.52;3.45;;;;;;;2.31;39.46;100062.30;1701076;83;21054;-64
2022/03/28 06:35:54;;;;;;;21.45;6.37;;;;;;;2.40;38.99;100066.73;1697549;83;20962;-63
2022/03/28 06:38:29;;;;;;;38.15;10.80;;;;;;;2.54;38.06;100070.19;1692171;84;20942;-64
2022/03/28 06:41:01;;;;;;;16.23;4.45;;;;;;;2.69;38.31;100061.98;1683479;83;21037;-67
2022/03/28 06:43:32;;;;;;;19.77;6.15;;;;;;;2.86;36.89;100054.08;1675034;83;20954;-65
2022/03/28 06:46:00;;;;;;;10.70;4.05;;;;;;;3.01;37.35;100054.77;1707308;83;20937;-68
2022/03/28 06:48:31;;;;;;;6.50;2.35;;;;;;;3.14;37.05;100037.27;1695826;82;20972;-69
2022/03/28 06:51:06;;;;;;;6.95;2.67;;;;;;;3.19;35.96;100036.80;1754902;80;20857;-71
2022/03/28 06:56:29;;;;;;;7.28;1.80;;;;;;;3.27;35.22;100025.48;1696093;83;20868;-69
2022/03/28 06:59:04;;;;;;;10.08;2.47;;;;;;;3.36;35.62;100012.81;1714298;83;21108;-72
2022/03/28 07:01:34;;;;;;;6.78;1.87;;;;;;;3.52;35.48;100010.48;1714446;83;21023;-66
2022/03/28 07:04:05;;;;;;;6.53;1.40;;;;;;;3.71;34.94;100017.72;1688672;84;21002;-67
2022/03/28 07:06:35;;;;;;;9.18;1.57;;;;;;;3.87;34.29;100004.00;1712584;83;21157;-67
2022/03/28 07:09:10;;;;;;;5.70;1.37;;;;;;;4.00;34.36;99993.22;1698395;83;21574;-68
2022/03/28 07:11:39;;;;;;;10.05;1.62;;;;;;;4.13;33.92;100002.25;1710366;83;20982;-67
2022/03/28 07:14:10;;;;;;;6.33;1.65;;;;;;;4.29;33.33;99992.28;1714421;82;20942;-67
2022/03/28 07:16:40;;;;;;;9.30;1.87;;;;;;;4.40;32.70;99995.34;1689027;83;20958;-67
2022/03/28 07:19:13;;;;;;;5.50;1.60;;;;;;;4.52;32.53;100009.54;1720937;82;21311;-65
2022/03/28 07:21:44;;;;;;;7.50;1.40;;;;;;;4.61;32.29;99995.72;1698755;83;21498;-66
2022/03/28 07:24:15;;;;;;;6.00;1.32;;;;;;;4.79;32.54;100007.18;1723794;82;20951;-67
2022/03/28 07:26:45;;;;;;;3.35;1.30;;;;;;;5.10;31.80;99982.25;1692025;83;21055;-69
2022/03/28 07:29:17;;;;;;;3.37;1.20;;;;;;;5.46;31.35;99974.38;1713691;82;21532;-68
2022/03/28 07:31:45;;;;;;;3.25;1.42;;;;;;;5.97;31.02;99960.73;1718535;81;21126;-68
2022/03/28 07:34:34;;;;;;;9.88;1.70;;;;;;;6.43;29.80;99987.32;1716589;82;20990;-70
2022/03/28 07:37:09;;;;;;;5.47;1.45;;;;;;;6.68;29.59;99971.41;1694345;83;20978;-65
2022/03/28 07:39:41;;;;;;;4.90;1.57;;;;;;;7.00;28.91;99971.50;1722132;82;20934;-64
2022/03/28 07:42:15;;;;;;;6.22;1.60;;;;;;;7.27;28.91;99947.30;1691097;82;20963;-67
2022/03/28 07:44:45;;;;;;;7.08;1.00;;;;;;;7.60;28.84;99942.92;1737968;81;21980;-69
2022/03/28 07:47:17;;;;;;;5.80;1.40;;;;;;;7.85;28.20;99941.33;1720599;81;20923;-68
2022/03/28 07:49:48;;;;;;;13.58;1.30;;;;;;;7.98;28.16;99928.91;1701114;82;20927;-66
2022/03/28 07:52:16;;;;;;;10.28;1.42;;;;;;;8.01;27.67;99922.86;1702374;83;21407;-69
2022/03/28 07:54:43;;;;;;;9.30;1.47;;;;;;;8.04;28.29;99921.47;1691984;83;21377;-71
2022/03/28 07:57:11;;;;;;;2.27;1.40;;;;;;;8.15;28.08;99909.28;1745278;81;21124;-69
2022/03/28 07:59:47;;;;;;;6.33;1.45;;;;;;;8.33;27.66;99873.00;1672702;83;20967;-68
2022/03/28 08:02:17;;;;;;;4.72;2.12;;;;;;;8.33;28.00;99904.45;1751719;81;21438;-67
2022/03/28 08:04:45;;;;;;;8.20;2.08;;;;;;;8.41;28.05;99901.63;1741757;81;20908;-68
2022/03/28 08:07:14;;;;;;;4.00;1.52;;;;;;;8.59;27.96;99886.61;1710220;83;21494;-72
2022/03/28 08:09:53;;;;;;;4.97;2.05;;;;;;;8.76;27.87;99900.33;1749353;81;21764;-71
2022/03/28 08:12:22;;;;;;;7.75;2.35;;;;;;;8.88;27.86;99874.13;1749868;81;20974;-73
2022/03/28 08:14:56;;;;;;;7.40;1.95;;;;;;;8.88;27.88;99881.53;1754509;80;21065;-68
2022/03/28 08:17:24;;;;;;;;;;;;;;;8.86;27.89;99887.30;1750824;81;21105;-70
2022/03/28 08:19:57;;;;;;;5.33;2.47;;;;;;;8.85;28.04;99872.55;1745265;81;20102;-71
2022/03/28 08:22:31;;;;;;;9.13;2.52;;;;;;;8.88;28.55;99869.22;1708653;83;21404;-75
2022/03/28 08:25:01;;;;;;;7.75;2.17;;;;;;;9.22;28.39;99864.30;1741616;81;21010;-72
2022/03/28 08:27:30;;;;;;;9.58;3.25;;;;;;;9.52;27.89;99864.87;1711423;83;20845;-72
2022/03/28 08:29:58;;;;;;;9.58;3.10;;;;;;;9.65;27.04;99842.72;1689438;84;20978;-70
2022/03/28 08:32:29;;;;;;;7.47;2.52;;;;;;;9.62;27.90;99855.66;1711228;83;20895;-69
2022/03/28 08:35:06;;;;;;;8.38;2.80;;;;;;;9.71;27.83;99851.92;1755076;81;21171;-72
2022/03/28 08:37:56;;;;;;;9.00;3.35;;;;;;;9.78;27.92;99825.48;1681215;83;20875;-67
2022/03/28 08:40:09;;;;;;;7.15;3.08;;;;;;;10.29;27.29;99816.23;1681411;84;21537;-69
2022/03/28 08:42:40;;;;;;;22.07;3.50;;;;;;;10.29;27.29;99816.23;1742118;81;20943;-68
2022/03/28 08:45:14;;;;;;;11.28;3.17;;;;;;;10.36;27.21;99813.32;1707195;83;21451;-68
2022/03/28 08:47:42;;;;;;;10.10;3.35;;;;;;;10.43;27.17;99792.29;1747508;81;21129;-69
2022/03/28 08:50:21;;;;;;;10.05;3.20;;;;;;;10.49;27.33;99786.94;1685561;84;20892;-69
2022/03/28 08:52:50;;;;;;;11.50;2.52;;;;;;;10.66;27.05;99782.97;1745171;81;21006;-67
2022/03/28 08:55:23;;;;;;;15.20;3.10;;;;;;;10.76;27.16;99776.44;1712641;83;20939;-67
2022/03/28 08:57:51;;;;;;;13.60;2.98;;;;;;;10.70;26.76;99766.13;1668668;85;20998;-67
2022/03/28 09:00:22;;;;;;;8.13;2.50;;;;;;;10.70;27.20;99752.41;1709844;83;21264;-66
2022/03/28 09:02:57;;;;;;;10.83;3.03;;;;;;;10.84;26.87;99747.66;1684712;84;21027;-69
2022/03/28 09:05:35;;;;;;;8.73;2.42;;;;;;;10.96;26.88;99740.80;1685597;83;21561;-68
2022/03/28 09:08:08;;;;;;;9.38;2.50;;;;;;;11.07;26.46;99736.63;1742230;81;20987;-68
2022/03/28 09:10:49;;;;;;;6.92;2.02;;;;;;;10.97;26.84;99732.80;1706093;83;21407;-73
2022/03/28 09:13:19;;;;;;;8.33;2.25;;;;;;;10.99;26.62;99736.83;1737278;81;21238;-72
2022/03/28 09:16:01;;;;;;;5.12;2.20;;;;;;;11.18;26.81;99735.25;1752860;81;21041;-70
2022/03/28 09:18:35;;;;;;;10.15;2.08;;;;;;;11.50;26.47;99746.48;1719883;82;20982;-69
2022/03/28 09:21:10;;;;;;;10.25;2.37;;;;;;;11.73;26.02;99740.32;1750955;81;21001;-68
2022/03/28 09:23:49;;;;;;;7.37;2.50;;;;;;;11.76;26.27;99747.94;1705624;83;21015;-66
2022/03/28 09:26:26;;;;;;;17.12;2.22;;;;;;;11.75;25.68;99729.25;1745220;81;21184;-67
2022/03/28 09:29:03;;;;;;;9.75;2.30;;;;;;;11.56;25.98;99722.62;1710153;83;20872;-67
2022/03/28 09:31:37;;;;;;;12.00;2.58;;;;;;;11.44;26.23;99710.08;1675615;85;21542;-69
2022/03/28 09:34:16;;;;;;;7.67;2.40;;;;;;;11.60;26.03;99707.68;1724320;81;21101;-66
2022/03/28 09:36:56;;;;;;;9.93;2.08;;;;;;;11.73;25.61;99745.25;1718149;81;20892;-71
2022/03/28 09:39:34;;;;;;;8.15;2.42;;;;;;;11.67;25.79;99719.03;1710551;83;21252;-67
2022/03/28 09:42:13;;;;;;;10.95;2.65;;;;;;;11.68;26.17;99693.72;1743297;81;20895;-66
2022/03/28 09:44:51;;;;;;;9.73;3.20;;;;;;;11.87;26.14;99685.47;1748170;81;21064;-67
2022/03/28 09:47:21;;;;;;;6.55;2.72;;;;;;;11.95;26.14;99678.36;1714049;83;20883;-64
2022/03/28 09:49:53;;;;;;;4.45;2.00;;;;;;;12.09;26.11;99689.22;1738971;81;20989;-64
2022/03/28 09:52:31;;;;;;;7.97;2.00;;;;;;;12.20;25.56;99664.35;1748624;81;21577;-64
2022/03/28 09:55:02;;;;;;;7.22;2.47;;;;;;;12.22;25.81;99671.72;1753450;81;20939;-65
2022/03/28 09:57:38;;;;;;;13.93;2.77;;;;;;;12.38;26.01;99656.34;1689248;83;21499;-70
2022/03/28 10:00:20;;;;;;;11.83;2.10;;;;;;;12.60;25.05;99677.38;1750038;81;21002;-67
2022/03/28 10:02:47;;;;;;;11.20;2.45;;;;;;;12.48;25.22;99669.77;1706669;83;20931;-70
2022/03/28 10:05:18;;;;;;;7.25;2.33;;;;;;;12.33;25.31;99652.38;1711254;82;21459;-70
2022/03/28 10:07:51;;;;;;;7.80;2.10;;;;;;;12.33;25.19;99655.69;1743070;81;21155;-68
2022/03/28 10:10:22;;;;;;;7.62;2.35;;;;;;;12.26;25.50;99643.80;1702539;83;20976;-73
2022/03/28 10:12:53;;;;;;;5.05;1.75;;;;;;;12.33;25.98;99626.79;1687092;84;21011;-67
2022/03/28 10:15:24;;;;;;;10.75;2.62;;;;;;;12.55;25.48;99613.64;1744671;81;21014;-65
2022/03/28 10:17:55;;;;;;;8.00;2.12;;;;;;;12.70;25.78;99617.83;1710122;83;21118;-66
2022/03/28 10:20:22;;;;;;;5.75;2.05;;;;;;;12.93;25.19;99613.44;1657590;85;20991;-66
2022/03/28 10:22:55;;;;;;;6.55;2.27;;;;;;;12.94;25.20;99611.73;1682200;84;20967;-67
2022/03/28 10:25:27;;;;;;;7.75;2.70;;;;;;;13.04;25.00;99614.70;1684880;84;20979;-67
2022/03/28 10:27:55;;;;;;;4.90;2.10;;;;;;;13.12;25.23;99611.09;1747387;81;20971;-68
2022/03/28 10:30:30;;;;;;;7.30;2.03;;;;;;;13.20;24.92;99609.71;1726637;82;20986;-68
2022/03/28 10:33:17;;;;;;;6.00;2.17;;;;;;;13.08;24.75;99583.39;1750663;80;20975;-69
2022/03/28 10:36:06;;;;;;;6.80;2.30;;;;;;;13.01;24.92;99588.61;1753315;81;21000;-64
2022/03/28 10:38:36;;;;;;;9.50;2.37;;;;;;;13.05;25.13;99578.54;1722038;81;20998;-68
2022/03/28 10:41:10;;;;;;;4.78;2.00;;;;;;;13.04;24.65;99585.77;1711946;83;21496;-68
2022/03/28 10:43:37;;;;;;;7.37;2.17;;;;;;;12.97;24.67;99604.19;1739908;81;21239;-66
2022/03/28 10:46:11;;;;;;;10.50;3.92;;;;;;;12.86;24.54;99577.56;1689281;83;20911;-69
2022/03/28 10:48:48;;;;;;;32.88;8.18;;;;;;;12.77;24.88;99570.47;1744312;81;20990;-67
2022/03/28 10:51:24;;;;;;;9.63;3.00;;;;;;;12.79;24.72;99572.32;1743151;82;21046;-69
2022/03/28 10:54:01;;;;;;;11.78;2.47;;;;;;;12.73;24.83;99562.62;1743062;81;21031;-68
2022/03/28 10:56:39;;;;;;;7.00;2.30;;;;;;;12.74;25.12;99550.47;1706710;83;22626;-68
2022/03/28 10:59:15;;;;;;;9.38;2.30;;;;;;;12.99;25.27;99532.21;1708568;82;20845;-66
2022/03/28 11:01:44;;;;;;;7.92;2.30;;;;;;;13.26;24.24;99519.94;1675251;84;21490;-68
2022/03/28 11:04:21;;;;;;;11.80;2.02;;;;;;;13.37;24.33;99519.75;1679493;84;20935;-70
2022/03/28 11:07:03;;;;;;;7.85;1.87;;;;;;;13.42;23.69;99508.53;1680700;83;20994;-70
2022/03/28 11:09:55;;;;;;;12.50;2.30;;;;;;;13.38;23.89;99493.80;1721603;81;21054;-69
2022/03/28 11:12:39;;;;;;;11.85;1.95;;;;;;;13.47;23.81;99506.95;1747830;81;21017;-67
2022/03/28 11:15:21;;;;;;;6.45;1.95;;;;;;;13.56;24.03;99489.77;1744758;81;21438;-67
2022/03/28 11:17:57;;;;;;;4.55;2.15;;;;;;;13.78;23.70;99485.86;1753086;81;20890;-70
2022/03/28 11:20:31;;;;;;;5.58;2.22;;;;;;;13.98;23.05;99474.52;1715815;82;20987;-66
2022/03/28 11:24:13;;;;;;;8.65;2.00;;;;;;;13.96;23.31;99479.58;1742843;81;21129;-66
2022/03/28 11:26:45;;;;;;;7.17;2.17;;;;;;;14.01;23.24;99469.13;1707299;83;20944;-68
2022/03/28 11:29:21;;;;;;;8.38;2.40;;;;;;;13.92;23.23;99460.13;1710072;83;20864;-70
2022/03/28 11:31:57;;;;;;;8.53;2.67;;;;;;;14.00;22.83;99462.56;1687309;84;20876;-68
2022/03/28 11:34:30;;;;;;;9.03;4.05;;;;;;;14.03;22.54;99443.95;1698742;83;20924;-67
2022/03/28 11:37:04;;;;;;;4.65;2.33;;;;;;;14.04;22.68;99449.12;1758576;81;21146;-68
2022/03/28 11:40:07;;;;;;;13.20;2.27;;;;;;;14.09;22.73;99433.73;1717276;83;21554;-66
2022/03/28 11:42:36;;;;;;;6.55;2.08;;;;;;;14.09;22.66;99437.06;1692395;83;20998;-68
2022/03/28 11:45:13;;;;;;;10.58;2.52;;;;;;;14.11;22.49;99419.02;1740572;82;21435;-68
2022/03/28 11:47:51;;;;;;;6.55;2.00;;;;;;;14.21;22.80;99418.57;1702850;83;20887;-72
2022/03/28 11:51:06;;;;;;;18.75;3.50;;;;;;;14.42;22.06;99424.61;1707324;83;20979;-72
2022/03/28 11:54:42;;;;;;;8.23;2.52;;;;;;;14.46;22.07;99406.98;1684425;83;20950;-71
2022/03/28 12:00:26;;;;;;;11.28;3.85;;;;;;;14.37;21.83;99385.58;1690001;84;21007;-68
2022/03/28 12:02:58;;;;;;;5.15;2.30;;;;;;;14.41;21.93;99377.41;1719968;82;20927;-66